createdAt,value
2019-01-13T00:00:17.341Z,4.9
2019-01-13T00:05:17.189Z,4.9
2019-01-13T00:10:17.155Z,4.9
2019-01-13T00:15:17.015Z,5.3
2019-01-13T00:20:17.035Z,3.9
2019-01-13T00:25:16.889Z,4.4
2019-01-13T00:30:19.839Z,4.6
2019-01-13T00:35:17.788Z,5.1
2019-01-13T00:40:16.794Z,4.6
2019-01-13T00:45:17.661Z,4.9
2019-01-13T00:50:17.501Z,4.4
2019-01-13T00:55:22.743Z,4.9
2019-01-13T01:00:17.594Z,4.5
2019-01-13T01:05:17.467Z,2.4
2019-01-13T01:10:17.414Z,2.1
2019-01-13T01:15:17.228Z,2.6
2019-01-13T01:20:17.241Z,2.4
2019-01-13T01:25:17.060Z,3.5
2019-01-13T01:30:16.894Z,3.8
2019-01-13T01:35:17.729Z,1.9
2019-01-13T01:40:17.693Z,2.3
2019-01-13T01:45:17.530Z,1.7
2019-01-13T01:50:17.342Z,1.2
2019-01-13T01:55:17.158Z,0.7
2019-01-13T02:00:17.028Z,1.6
2019-01-13T02:05:16.841Z,2.1
2019-01-13T02:10:16.921Z,1.3
2019-01-13T02:15:16.754Z,1.1
2019-01-13T02:20:16.779Z,1.5
2019-01-13T02:25:17.953Z,2
2019-01-13T02:30:16.783Z,1.4
2019-01-13T02:35:17.697Z,2.9
2019-01-13T02:40:17.665Z,4
2019-01-13T02:45:17.509Z,2.3
2019-01-13T02:50:17.400Z,2.8
2019-01-13T02:55:17.341Z,3.1
2019-01-13T03:00:17.233Z,4.2
2019-01-13T03:05:17.109Z,4
2019-01-13T03:10:17.459Z,3.8
2019-01-13T03:15:20.069Z,3.9
2019-01-13T03:20:17.131Z,4.3
2019-01-13T03:25:16.999Z,4.2
2019-01-13T03:30:16.837Z,3.7
2019-01-13T03:35:17.841Z,3.8
2019-01-13T03:40:16.867Z,3.8
2019-01-13T03:45:17.793Z,3.6
2019-01-13T03:50:17.738Z,3.9
2019-01-13T03:55:17.613Z,4
2019-01-13T04:00:17.474Z,4.1
2019-01-13T04:05:17.330Z,3.4
2019-01-13T04:10:17.451Z,3.6
2019-01-13T04:15:17.309Z,0.7
2019-01-13T04:20:17.334Z,2.7
2019-01-13T04:25:17.206Z,3.4
2019-01-13T04:30:17.060Z,4.1
2019-01-13T04:35:16.894Z,3.7
2019-01-13T04:40:16.861Z,2.4
2019-01-13T04:45:18.119Z,3.1
2019-01-13T04:50:16.961Z,4
2019-01-13T04:55:16.834Z,4.1
2019-01-13T05:00:17.809Z,3.6
2019-01-13T05:05:17.649Z,3.4
2019-01-13T05:10:17.632Z,3.1
2019-01-13T05:15:17.491Z,2.6
2019-01-13T05:20:17.501Z,0.6
2019-01-13T05:25:17.338Z,2.5
2019-01-13T05:30:17.230Z,1
2019-01-13T05:35:17.094Z,1.9
2019-01-13T05:40:17.082Z,2.1
2019-01-13T05:45:16.890Z,1.1
2019-01-13T05:50:17.753Z,1.9
2019-01-13T05:55:17.581Z,3.2
2019-01-13T06:00:17.521Z,3.9
2019-01-13T06:05:17.337Z,1
2019-01-13T06:10:17.334Z,2.2
2019-01-13T06:15:17.157Z,3.2
2019-01-13T06:20:17.214Z,4.2
2019-01-13T06:25:17.466Z,1.8
2019-01-13T06:30:17.309Z,2.1
2019-01-13T06:35:17.169Z,2.9
2019-01-13T06:40:17.214Z,2.4
2019-01-13T06:45:17.121Z,1.2
2019-01-13T06:50:17.669Z,3.7
2019-01-13T06:55:17.671Z,4.4
2019-01-13T07:00:17.630Z,4.3
2019-01-13T07:05:17.474Z,5.1
2019-01-13T07:10:17.478Z,4.5
2019-01-13T07:15:17.297Z,4.2
2019-01-13T07:20:17.333Z,4.9
2019-01-13T07:25:17.244Z,4.5
2019-01-13T07:30:17.210Z,4.8
2019-01-13T07:35:17.073Z,4.1
2019-01-13T07:40:17.061Z,3.9
2019-01-13T07:45:16.935Z,3.4
2019-01-13T07:50:16.784Z,2.3
2019-01-13T07:55:17.671Z,1.9
2019-01-13T08:00:17.596Z,2.4
2019-01-13T08:05:17.410Z,3.4
2019-01-13T08:10:17.469Z,1.7
2019-01-13T08:15:17.320Z,1.6
2019-01-13T08:20:17.451Z,2.4
2019-01-13T08:25:17.435Z,1.3
2019-01-13T08:30:17.326Z,3.1
2019-01-13T08:35:17.177Z,1.3
2019-01-13T08:40:17.212Z,3.4
2019-01-13T08:45:17.057Z,2.2
2019-01-13T08:50:16.890Z,0.5
2019-01-13T08:55:17.849Z,1.1
2019-01-13T09:00:17.690Z,0.4
2019-01-13T09:05:17.629Z,1.3
2019-01-13T09:10:17.675Z,2.6
2019-01-13T09:15:17.625Z,2.2
2019-01-13T09:20:17.655Z,2.5
2019-01-13T09:25:17.515Z,2.2
2019-01-13T09:30:17.991Z,2.1
2019-01-13T09:35:23.129Z,1
2019-01-13T09:40:17.298Z,0.8
2019-01-13T09:45:17.208Z,1.1
2019-01-13T09:50:17.253Z,1.5
2019-01-13T09:55:17.130Z,0.9
2019-01-13T10:00:16.981Z,1.7
2019-01-13T10:05:16.894Z,0.7
2019-01-13T10:10:16.984Z,0.5
2019-01-13T10:15:16.961Z,0.3
2019-01-13T10:20:17.040Z,0.4
2019-01-13T10:25:16.951Z,0.6
2019-01-13T10:30:16.778Z,0.4
2019-01-13T10:35:17.746Z,0.8
2019-01-13T10:40:17.854Z,0.2
2019-01-13T10:45:17.709Z,0.7
2019-01-13T10:50:49.750Z,0.2
2019-01-13T10:55:17.582Z,0.1
2019-01-13T11:00:17.414Z,0.4
2019-01-13T11:05:17.237Z,0.4
2019-01-13T11:10:17.242Z,0.3
2019-01-13T11:15:22.111Z,0.8
2019-01-13T11:20:17.157Z,0.5
2019-01-13T11:25:16.993Z,1.1
2019-01-13T11:30:16.834Z,0.6
2019-01-13T11:35:17.838Z,0.4
2019-01-13T11:40:16.813Z,0.6
2019-01-13T11:45:18.063Z,0.4
2019-01-13T11:50:16.905Z,0.6
2019-01-13T11:55:17.750Z,0.6
2019-01-13T12:00:17.569Z,1.3
2019-01-13T12:05:17.729Z,1.3
2019-01-13T12:10:17.807Z,0.8
2019-01-13T12:15:17.823Z,2.3
2019-01-13T12:20:16.845Z,1
2019-01-13T12:25:17.969Z,0.7
2019-01-13T12:30:16.791Z,0.7
2019-01-13T12:35:17.648Z,1.1
2019-01-13T12:40:17.635Z,1
2019-01-13T12:45:17.536Z,1.8
2019-01-13T12:50:17.402Z,8.9
2019-01-13T12:55:17.248Z,4.4
2019-01-13T13:00:17.069Z,3
2019-01-13T13:05:16.956Z,5.2
2019-01-13T13:10:17.303Z,3
2019-01-13T13:15:17.134Z,3.2
2019-01-13T13:20:17.310Z,5.9
2019-01-13T13:25:17.166Z,6.8
2019-01-13T13:30:17.208Z,6
2019-01-13T13:35:17.054Z,1.8
2019-01-13T13:40:16.998Z,3.5
2019-01-13T13:45:16.943Z,7.1
2019-01-13T13:50:16.789Z,1.7
2019-01-13T13:55:17.678Z,6.8
2019-01-13T14:00:17.567Z,6.3
2019-01-13T14:05:17.813Z,1.5
2019-01-13T14:10:16.969Z,4.4
2019-01-13T14:15:16.830Z,6.4
2019-01-13T14:20:16.865Z,7.1
2019-01-13T14:25:17.798Z,6.3
2019-01-13T14:30:17.637Z,2
2019-01-13T14:35:18.113Z,4.1
2019-01-13T14:40:17.095Z,4.9
2019-01-13T14:45:16.954Z,5.2
2019-01-13T14:50:18.856Z,5
2019-01-13T14:55:16.794Z,3.4
2019-01-13T15:00:17.734Z,1.3
2019-01-13T15:05:17.743Z,3.2
2019-01-13T15:10:17.835Z,2
2019-01-13T15:15:17.681Z,1.7
2019-01-13T15:20:17.716Z,1.2
2019-01-13T15:25:17.677Z,1
2019-01-13T15:30:17.510Z,2.1
2019-01-13T15:35:17.335Z,2.5
2019-01-13T15:40:17.293Z,2.6
2019-01-13T15:45:17.286Z,3.2
2019-01-13T15:50:17.130Z,2.9
2019-01-13T15:55:16.969Z,2.8
2019-01-13T16:00:16.854Z,2.3
2019-01-13T16:05:18.017Z,2.1
2019-01-13T16:10:17.001Z,2.9
2019-01-13T16:15:16.901Z,1.2
2019-01-13T16:20:16.912Z,2
2019-01-13T16:25:16.776Z,2.3
2019-01-13T16:30:17.672Z,2.4
2019-01-13T16:35:17.613Z,2.5
2019-01-13T16:40:17.587Z,4.1
2019-01-13T16:45:17.407Z,2.7
2019-01-13T16:50:17.276Z,6.1
2019-01-13T16:55:22.192Z,5.8
2019-01-13T17:00:17.067Z,1
2019-01-13T17:05:16.929Z,6.1
2019-01-13T17:10:17.003Z,6.1
2019-01-13T17:15:16.870Z,6.4
2019-01-13T17:20:16.878Z,2.5
2019-01-13T17:25:18.110Z,6
2019-01-13T17:30:16.992Z,6.1
2019-01-13T17:35:16.931Z,7.3
2019-01-13T17:40:16.905Z,5.5
2019-01-13T17:45:16.739Z,4.4
2019-01-13T17:50:17.651Z,2.1
2019-01-13T17:55:17.594Z,5.2
2019-01-13T18:00:17.464Z,4.6
2019-01-13T18:05:17.302Z,7
2019-01-13T18:10:17.337Z,5.5
2019-01-13T18:15:17.595Z,3.3
2019-01-13T18:20:17.764Z,6.4
2019-01-13T18:25:17.703Z,3.2
2019-01-13T18:30:17.578Z,6.2
2019-01-13T18:35:17.522Z,6.9
2019-01-13T18:40:17.473Z,3.3
2019-01-13T18:45:17.334Z,5.7
2019-01-13T18:50:17.219Z,5.9
2019-01-13T18:55:17.060Z,6
2019-01-13T19:00:16.901Z,5.9
2019-01-13T19:05:17.825Z,4.3
2019-01-13T19:10:21.899Z,6
2019-01-13T19:15:17.825Z,7
2019-01-13T19:20:16.923Z,6.7
2019-01-13T19:25:16.797Z,7.3
2019-01-13T19:30:17.713Z,2.8
2019-01-13T19:35:17.594Z,5.9
2019-01-13T19:40:17.537Z,5
2019-01-13T19:45:17.373Z,5
2019-01-13T19:50:17.255Z,6.6
2019-01-13T19:55:17.066Z,3.2
2019-01-13T20:00:16.938Z,6.2
2019-01-13T20:05:16.844Z,4.2
2019-01-13T20:10:16.921Z,6.1
2019-01-13T20:15:16.811Z,5.7
2019-01-13T20:20:17.335Z,6.5
2019-01-13T20:25:17.280Z,4.7
2019-01-13T20:30:17.162Z,5.8
2019-01-13T20:35:19.800Z,3
2019-01-13T20:40:16.798Z,2.7
2019-01-13T20:45:17.672Z,6.1
2019-01-13T20:50:17.578Z,2.7
2019-01-13T20:55:17.450Z,5.6
2019-01-13T21:00:17.638Z,5.2
2019-01-13T21:05:17.533Z,5.7
2019-01-13T21:10:17.531Z,6.5
2019-01-13T21:15:17.348Z,3.9
2019-01-13T21:20:17.417Z,6.2
2019-01-13T21:25:17.245Z,4.2
2019-01-13T21:30:17.089Z,5.6
2019-01-13T21:35:16.970Z,3.5
2019-01-13T21:40:16.949Z,6.7
2019-01-13T21:45:16.785Z,2
2019-01-13T21:50:18.109Z,1.9
2019-01-13T21:55:17.018Z,5.8
2019-01-13T22:00:16.846Z,2.6
2019-01-13T22:05:17.775Z,4.8
2019-01-13T22:10:17.849Z,6
2019-01-13T22:15:18.100Z,3.7
2019-01-13T22:20:17.310Z,2.6
2019-01-13T22:25:17.169Z,6.4
2019-01-13T22:30:17.152Z,6.2
2019-01-13T22:35:17.018Z,6.6
2019-01-13T22:40:16.995Z,3
2019-01-13T22:45:16.996Z,5.4
2019-01-13T22:50:16.864Z,6.5
2019-01-13T22:55:17.725Z,4.9
2019-01-13T23:00:17.953Z,6.5
2019-01-13T23:05:16.863Z,3.2
2019-01-13T23:10:16.876Z,5.8
2019-01-13T23:15:17.813Z,5.9
2019-01-13T23:20:16.862Z,6.8
2019-01-13T23:25:17.722Z,6.8
2019-01-13T23:30:17.533Z,4.4
2019-01-13T23:35:17.349Z,5.9
2019-01-13T23:40:17.322Z,7.1
2019-01-13T23:45:17.154Z,3.7
2019-01-13T23:50:16.994Z,7.4
2019-01-13T23:55:16.842Z,7.6
